West Chenango, New York
Current Conditions -  °F | °C
As of 10:53 PM on Wednesday 26 Nov 2014 (Local Time) from KBGM Reporting Station
Light Snow Light Snow  
Wind Chill: 33°   Ceiling: 500
Heat Index: 39°   Visibility: 7mi
Dew Point: 26°   Wind: 9mph
Humidity: 60%   Direction: 330°NNW
Pressure: 29.88"   Gusts: NA
Location:  42.1759°N, 75.9402°W
Report Text: KBGM 270353Z 33008KT 7SM -SN BKN005 OVC110 04/M03 A2988 RMK AO2 SLP131 P0000 T00391033 $
Loading
Personal Weather Stations






























Interactive Weather Map New forecast layout! Learn more

10-Day Weather Forecast

Advertisements
Track Severe Weather on mobile